Time;durP1;ratioP1;P1;durP2;ratioP2;P2;SDS_P1;SDS_P2;PMS_P1;PMS_P2;Temp;Humidity;BMP_temperature;BMP_pressure;BME280_temperature;BME280_humidity;BME280_pressure;Samples;Min_cycle;Max_cycle;Signal;HPM_P1;HPM_P2
2022/05/13 00:01:05;;;;;;;6.90;3.53;;;;;;;;;;5093823;28;20044;-67
2022/05/13 00:03:31;;;;;;;9.57;3.53;;;;;;;;;;5093299;28;20487;-66
2022/05/13 00:05:57;;;;;;;7.28;3.85;;;;;;;;;;5093559;28;20044;-67
2022/05/13 00:08:24;;;;;;;8.25;3.40;;;;;;;;;;5093524;28;20043;-66
2022/05/13 00:10:50;;;;;;;7.28;3.63;;;;;;;;;;5092040;28;20074;-67
2022/05/13 00:13:16;;;;;;;9.20;4.15;;;;;;;;;;5092035;28;20060;-66
2022/05/13 00:15:42;;;;;;;5.45;3.72;;;;;;;;;;5093604;28;20036;-66
2022/05/13 00:18:09;;;;;;;8.30;3.88;;;;;;;;;;5073075;28;20131;-66
2022/05/13 00:20:35;;;;;;;5.65;3.53;;;;;;;;;;5073245;28;20041;-66
2022/05/13 00:23:01;;;;;;;9.52;4.20;;;;;;;;;;5073446;28;20048;-66
2022/05/13 00:25:29;;;;;;;5.93;3.03;;;;;;;;;;5073207;28;20040;-67
2022/05/13 00:27:55;;;;;;;9.23;3.80;;;;;;;;;;5073284;28;20090;-67
2022/05/13 00:30:21;;;;;;;8.45;3.35;;;;;;;;;;5072762;28;20056;-67
2022/05/13 00:32:49;;;;;;;7.63;4.00;;;;;;;;;;5073094;28;20091;-65
2022/05/13 00:35:15;;;;;;;12.75;4.30;;;;;;;;;;5073007;28;20055;-66
2022/05/13 00:37:41;;;;;;;6.20;3.15;;;;;;;;;;5073021;28;20386;-66
2022/05/13 00:40:07;;;;;;;7.05;3.03;;;;;;;;;;5073007;28;20043;-66
2022/05/13 00:42:33;;;;;;;6.70;3.22;;;;;;;;;;5072788;28;20049;-66
2022/05/13 00:44:59;;;;;;;7.55;3.30;;;;;;;;;;5073441;28;20044;-66
2022/05/13 00:47:25;;;;;;;9.00;3.92;;;;;;;;;;5072805;28;20518;-66
2022/05/13 00:49:52;;;;;;;8.90;3.10;;;;;;;;;;5072855;28;20039;-65
2022/05/13 00:52:18;;;;;;;5.57;3.13;;;;;;;;;;5072940;28;20040;-66
2022/05/13 00:54:44;;;;;;;5.28;3.03;;;;;;;;;;5072962;28;20044;-66
2022/05/13 00:57:13;;;;;;;7.75;3.67;;;;;;;;;;5072634;28;20044;-67
2022/05/13 00:59:42;;;;;;;6.38;3.35;;;;;;;;;;5072656;28;20520;-66
2022/05/13 01:02:08;;;;;;;9.05;3.67;;;;;;;;;;5073121;28;20044;-66
2022/05/13 01:04:34;;;;;;;6.55;3.58;;;;;;;;;;5072851;28;20041;-66
2022/05/13 01:07:05;;;;;;;9.02;3.58;;;;;;;;;;5072610;28;20044;-66
2022/05/13 01:09:33;;;;;;;6.53;3.42;;;;;;;;;;5073162;28;20041;-66
2022/05/13 01:12:02;;;;;;;15.85;3.38;;;;;;;;;;5072413;28;20074;-65
2022/05/13 01:14:31;;;;;;;7.07;3.67;;;;;;;;;;5072460;28;20372;-67
2022/05/13 01:20:01;;;;;;;8.13;3.55;;;;;;;;;;5072641;28;20052;-67
2022/05/13 01:22:27;;;;;;;8.77;3.95;;;;;;;;;;5072564;28;20501;-67
2022/05/13 01:24:54;;;;;;;6.28;3.33;;;;;;;;;;5072384;28;20044;-67
2022/05/13 01:27:20;;;;;;;12.15;4.25;;;;;;;;;;5072335;28;20593;-66
2022/05/13 01:29:46;;;;;;;5.85;3.08;;;;;;;;;;5072290;28;20044;-66
2022/05/13 01:32:12;;;;;;;6.00;2.95;;;;;;;;;;5072782;28;20044;-67
2022/05/13 01:34:38;;;;;;;8.10;3.40;;;;;;;;;;5072240;28;20041;-66
2022/05/13 01:37:04;;;;;;;7.88;3.28;;;;;;;;;;5072388;28;20068;-66
2022/05/13 01:39:30;;;;;;;8.32;2.97;;;;;;;;;;5072689;28;20047;-67
2022/05/13 01:41:56;;;;;;;6.57;3.17;;;;;;;;;;5071067;28;20040;-66
2022/05/13 01:44:22;;;;;;;5.80;2.83;;;;;;;;;;5072412;28;20086;-67
2022/05/13 01:46:48;;;;;;;5.32;2.65;;;;;;;;;;5072466;28;20040;-66
2022/05/13 01:49:14;;;;;;;9.15;3.33;;;;;;;;;;5072151;28;20050;-66
2022/05/13 01:51:40;;;;;;;6.80;2.80;;;;;;;;;;5072449;28;20076;-66
2022/05/13 01:54:06;;;;;;;8.35;3.08;;;;;;;;;;5072328;28;20041;-67
2022/05/13 01:56:32;;;;;;;6.70;3.00;;;;;;;;;;5072124;28;20040;-66
2022/05/13 01:58:58;;;;;;;9.55;2.95;;;;;;;;;;5074681;28;20349;-67
2022/05/13 02:01:24;;;;;;;6.22;2.88;;;;;;;;;;5076080;28;20044;-67
2022/05/13 02:03:50;;;;;;;3.90;2.90;;;;;;;;;;5075854;28;20037;-66
2022/05/13 02:06:22;;;;;;;7.25;3.20;;;;;;;;;;5075631;28;20376;-67
2022/05/13 02:08:48;;;;;;;8.98;3.63;;;;;;;;;;5074439;28;20541;-66
2022/05/13 02:11:14;;;;;;;6.97;3.20;;;;;;;;;;5075832;28;20172;-66
2022/05/13 02:13:41;;;;;;;6.38;3.15;;;;;;;;;;5075733;28;20133;-66
2022/05/13 02:16:07;;;;;;;6.15;3.10;;;;;;;;;;5075575;28;20479;-66
2022/05/13 02:18:33;;;;;;;12.20;3.10;;;;;;;;;;5075568;28;20051;-66
2022/05/13 02:21:00;;;;;;;11.65;3.60;;;;;;;;;;5075394;28;20041;-66
2022/05/13 02:23:26;;;;;;;5.85;3.00;;;;;;;;;;5075431;28;20483;-66
2022/05/13 02:25:57;;;;;;;5.40;2.72;;;;;;;;;;5075979;28;20052;-66
2022/05/13 02:28:23;;;;;;;5.72;2.65;;;;;;;;;;5075400;28;20380;-66
2022/05/13 02:30:49;;;;;;;6.07;3.00;;;;;;;;;;5075261;28;20114;-66
2022/05/13 02:33:15;;;;;;;6.20;2.70;;;;;;;;;;5075311;28;20044;-68
2022/05/13 02:35:41;;;;;;;8.65;3.55;;;;;;;;;;5075823;28;20048;-67
2022/05/13 02:38:07;;;;;;;7.90;3.40;;;;;;;;;;5075393;28;20431;-66
2022/05/13 02:43:18;;;;;;;5.80;3.10;;;;;;;;;;5075011;28;20487;-69
2022/05/13 02:45:45;;;;;;;8.48;3.17;;;;;;;;;;5075653;28;20050;-66
2022/05/13 02:48:11;;;;;;;11.00;3.53;;;;;;;;;;5075669;28;20048;-65
2022/05/13 02:50:39;;;;;;;8.25;3.42;;;;;;;;;;5075133;28;20211;-66
2022/05/13 02:53:06;;;;;;;9.30;3.70;;;;;;;;;;5075159;28;20055;-67
2022/05/13 02:55:32;;;;;;;11.65;4.68;;;;;;;;;;5074872;28;20449;-67
2022/05/13 02:57:58;;;;;;;10.73;4.03;;;;;;;;;;5073668;28;20132;-66
2022/05/13 03:00:24;;;;;;;7.95;3.47;;;;;;;;;;5074792;28;20037;-67
2022/05/13 03:02:50;;;;;;;7.80;3.53;;;;;;;;;;5074971;28;20403;-66
2022/05/13 03:05:16;;;;;;;7.07;3.25;;;;;;;;;;5074999;28;20040;-66
2022/05/13 03:07:42;;;;;;;7.90;3.47;;;;;;;;;;5074834;28;20396;-67
2022/05/13 03:10:08;;;;;;;8.43;3.00;;;;;;;;;;5074594;28;20048;-66
2022/05/13 03:12:35;;;;;;;12.05;3.70;;;;;;;;;;5074803;28;20047;-67
2022/05/13 03:15:01;;;;;;;8.48;2.88;;;;;;;;;;5074296;28;20041;-67
2022/05/13 03:17:28;;;;;;;8.20;3.40;;;;;;;;;;5074572;28;20037;-66
2022/05/13 03:19:54;;;;;;;8.38;3.38;;;;;;;;;;5073458;28;20553;-66
2022/05/13 03:22:20;;;;;;;4.43;2.95;;;;;;;;;;5074694;28;20071;-67
2022/05/13 03:24:46;;;;;;;10.40;3.35;;;;;;;;;;5074306;28;20480;-67
2022/05/13 03:27:12;;;;;;;9.70;3.45;;;;;;;;;;5074494;28;20048;-66
2022/05/13 03:29:38;;;;;;;19.75;5.07;;;;;;;;;;5074422;28;20040;-66
2022/05/13 03:32:07;;;;;;;25.00;6.10;;;;;;;;;;5074649;28;20052;-66
2022/05/13 03:34:33;;;;;;;7.78;3.35;;;;;;;;;;5074181;28;20037;-65
2022/05/13 03:36:59;;;;;;;6.53;3.00;;;;;;;;;;5074353;28;20044;-66
2022/05/13 03:39:25;;;;;;;11.07;4.25;;;;;;;;;;5072896;28;20105;-66
2022/05/13 03:41:51;;;;;;;15.52;3.70;;;;;;;;;;5074290;28;20049;-67
2022/05/13 03:44:18;;;;;;;7.65;3.30;;;;;;;;;;5074089;28;20055;-66
2022/05/13 03:46:44;;;;;;;13.63;3.75;;;;;;;;;;5073912;28;20488;-65
2022/05/13 03:49:10;;;;;;;9.18;3.00;;;;;;;;;;5073973;28;20090;-67
2022/05/13 03:51:37;;;;;;;7.30;3.22;;;;;;;;;;5074044;28;20050;-67
2022/05/13 03:54:03;;;;;;;8.82;3.10;;;;;;;;;;5074057;28;20047;-66
2022/05/13 03:56:29;;;;;;;9.70;2.67;;;;;;;;;;5074009;28;20464;-67
2022/05/13 03:58:55;;;;;;;9.65;3.40;;;;;;;;;;5073648;28;20127;-66
2022/05/13 04:01:21;;;;;;;13.32;3.50;;;;;;;;;;5074069;28;20121;-66
2022/05/13 04:03:47;;;;;;;10.07;3.35;;;;;;;;;;5073794;28;20056;-66
2022/05/13 04:08:59;;;;;;;9.15;3.17;;;;;;;;;;5073740;28;20045;-67
2022/05/13 04:11:34;;;;;;;9.85;3.17;;;;;;;;;;5073317;28;20090;-66
2022/05/13 04:16:44;;;;;;;8.95;3.53;;;;;;;;;;5073387;28;20045;-66
2022/05/13 04:19:11;;;;;;;11.25;3.05;;;;;;;;;;5073227;28;20094;-66
2022/05/13 04:21:38;;;;;;;5.13;2.70;;;;;;;;;;5072787;28;20510;-67
2022/05/13 04:24:06;;;;;;;10.70;3.40;;;;;;;;;;5072685;28;20577;-66
2022/05/13 04:26:32;;;;;;;11.88;3.00;;;;;;;;;;5073328;28;20045;-67
2022/05/13 04:28:58;;;;;;;9.90;3.17;;;;;;;;;;5073149;28;20106;-66
2022/05/13 04:31:26;;;;;;;18.52;4.53;;;;;;;;;;5072924;28;20092;-67
2022/05/13 04:33:53;;;;;;;18.77;4.45;;;;;;;;;;5072905;28;20052;-67
2022/05/13 04:36:20;;;;;;;10.52;3.42;;;;;;;;;;5073034;28;20076;-67
2022/05/13 04:38:46;;;;;;;10.27;3.05;;;;;;;;;;5073319;28;20047;-66
2022/05/13 04:43:58;;;;;;;13.65;3.45;;;;;;;;;;5073316;28;20053;-67
2022/05/13 04:46:24;;;;;;;11.63;3.47;;;;;;;;;;5088341;28;20050;-66
2022/05/13 04:48:51;;;;;;;14.75;3.60;;;;;;;;;;5088547;28;20037;-65
2022/05/13 04:51:17;;;;;;;10.30;3.58;;;;;;;;;;5072701;28;20040;-66
2022/05/13 04:53:44;;;;;;;23.60;5.35;;;;;;;;;;5072847;28;20141;-65
2022/05/13 04:56:10;;;;;;;15.95;4.22;;;;;;;;;;5072757;28;20059;-66
2022/05/13 04:58:37;;;;;;;13.48;3.63;;;;;;;;;;5072853;28;20040;-67
2022/05/13 05:01:03;;;;;;;8.30;3.65;;;;;;;;;;5072782;28;20086;-66
2022/05/13 05:03:30;;;;;;;11.00;3.50;;;;;;;;;;5072614;28;20037;-66
2022/05/13 05:05:57;;;;;;;10.30;3.35;;;;;;;;;;5072714;28;20040;-67
2022/05/13 05:08:23;;;;;;;13.90;4.38;;;;;;;;;;5072622;28;20053;-66
2022/05/13 05:10:49;;;;;;;17.23;3.97;;;;;;;;;;5072914;28;20475;-66
2022/05/13 05:13:34;;;;;;;18.85;4.63;;;;;;;;;;5072931;28;20044;-66
2022/05/13 05:16:00;;;;;;;14.68;4.57;;;;;;;;;;5072731;28;20123;-66
2022/05/13 05:18:26;;;;;;;15.50;3.97;;;;;;;;;;5072925;28;20445;-66
2022/05/13 05:20:53;;;;;;;13.32;3.95;;;;;;;;;;5072734;28;20146;-66
2022/05/13 05:23:20;;;;;;;12.75;4.05;;;;;;;;;;5072570;28;20036;-66
2022/05/13 05:25:47;;;;;;;14.68;4.30;;;;;;;;;;5072497;28;20505;-66
2022/05/13 05:28:13;;;;;;;13.90;4.40;;;;;;;;;;5072526;28;20166;-67
2022/05/13 05:30:39;;;;;;;10.82;4.30;;;;;;;;;;5079234;28;20498;-67
2022/05/13 05:33:06;;;;;;;15.73;3.97;;;;;;;;;;5093528;28;20130;-68
2022/05/13 05:35:33;;;;;;;16.73;4.93;;;;;;;;;;5096912;28;20394;-67
2022/05/13 05:37:59;;;;;;;18.70;5.13;;;;;;;;;;5096667;28;20689;-66
2022/05/13 05:40:25;;;;;;;16.48;4.32;;;;;;;;;;5096622;28;20127;-67
2022/05/13 05:42:51;;;;;;;16.65;4.72;;;;;;;;;;5096907;28;20072;-66
2022/05/13 05:45:18;;;;;;;21.40;4.95;;;;;;;;;;5096818;28;20040;-65
2022/05/13 05:47:44;;;;;;;15.80;4.75;;;;;;;;;;5096713;28;20040;-65
2022/05/13 05:50:12;;;;;;;17.48;4.78;;;;;;;;;;5096457;28;20118;-66
2022/05/13 05:52:38;;;;;;;14.15;4.35;;;;;;;;;;5096294;28;20406;-67
2022/05/13 05:58:15;;;;;;;16.60;4.75;;;;;;;;;;5096302;28;20051;-67
2022/05/13 06:00:43;;;;;;;25.10;6.28;;;;;;;;;;5093995;28;20056;-67
2022/05/13 06:03:09;;;;;;;21.00;5.70;;;;;;;;;;5095903;28;20455;-67
2022/05/13 06:05:35;;;;;;;14.60;4.72;;;;;;;;;;5096280;28;20051;-67
2022/05/13 06:08:02;;;;;;;16.83;4.97;;;;;;;;;;5096215;28;20062;-68
2022/05/13 06:10:29;;;;;;;15.23;4.93;;;;;;;;;;5096515;28;20086;-67
2022/05/13 06:12:55;;;;;;;16.10;6.13;;;;;;;;;;5096440;28;20089;-68
2022/05/13 06:15:22;;;;;;;21.13;5.30;;;;;;;;;;5096097;28;20040;-68
2022/05/13 06:17:49;;;;;;;16.50;5.03;;;;;;;;;;5096007;28;20035;-68
2022/05/13 06:20:16;;;;;;;19.80;5.78;;;;;;;;;;5095696;28;20040;-68
2022/05/13 06:22:42;;;;;;;18.92;5.57;;;;;;;;;;5095652;28;20077;-68
2022/05/13 06:25:09;;;;;;;18.13;5.10;;;;;;;;;;5095775;28;20048;-68
2022/05/13 06:27:35;;;;;;;17.67;5.22;;;;;;;;;;5096037;28;20044;-68
2022/05/13 06:30:01;;;;;;;17.77;5.35;;;;;;;;;;5095582;28;20047;-69
2022/05/13 06:32:27;;;;;;;20.17;5.53;;;;;;;;;;5094854;28;20051;-68
2022/05/13 06:34:54;;;;;;;25.83;5.35;;;;;;;;;;5094686;28;20510;-68
2022/05/13 06:37:20;;;;;;;14.48;4.90;;;;;;;;;;5094230;28;20044;-68
2022/05/13 06:39:46;;;;;;;13.73;4.45;;;;;;;;;;5094483;28;20115;-68
2022/05/13 06:42:12;;;;;;;11.48;4.40;;;;;;;;;;5094382;28;20433;-68
2022/05/13 06:44:38;;;;;;;14.10;4.10;;;;;;;;;;5092755;28;20040;-68
2022/05/13 06:47:04;;;;;;;20.95;6.65;;;;;;;;;;5094379;28;20040;-69
2022/05/13 06:49:30;;;;;;;18.92;5.38;;;;;;;;;;5094548;28;20079;-68
2022/05/13 06:51:56;;;;;;;30.85;7.18;;;;;;;;;;5094402;28;20043;-69
2022/05/13 06:54:22;;;;;;;13.80;4.20;;;;;;;;;;5094504;28;20047;-68
2022/05/13 06:56:54;;;;;;;14.55;4.65;;;;;;;;;;5094161;28;20044;-68
2022/05/13 06:59:20;;;;;;;16.08;3.63;;;;;;;;;;5094167;28;20556;-68
2022/05/13 07:01:46;;;;;;;11.63;3.70;;;;;;;;;;5110171;28;20040;-68
2022/05/13 07:04:12;;;;;;;14.98;3.70;;;;;;;;;;5094056;28;20506;-69
2022/05/13 07:06:38;;;;;;;12.27;3.72;;;;;;;;;;5094244;28;20066;-68
2022/05/13 07:09:04;;;;;;;10.00;2.72;;;;;;;;;;5094130;28;20048;-69
2022/05/13 07:11:30;;;;;;;12.32;3.35;;;;;;;;;;5093910;28;20036;-68
2022/05/13 07:13:56;;;;;;;9.43;2.58;;;;;;;;;;5093981;28;20043;-68
2022/05/13 07:16:23;;;;;;;11.68;3.42;;;;;;;;;;5093427;28;20036;-68
2022/05/13 07:18:49;;;;;;;10.15;2.75;;;;;;;;;;5093160;28;20115;-68
2022/05/13 07:21:15;;;;;;;11.15;2.08;;;;;;;;;;5093255;28;20044;-68
2022/05/13 07:23:41;;;;;;;7.95;2.35;;;;;;;;;;5092905;28;20143;-68
2022/05/13 07:26:07;;;;;;;13.23;2.67;;;;;;;;;;5093467;28;20044;-67
2022/05/13 07:28:34;;;;;;;9.35;2.30;;;;;;;;;;5093515;28;20042;-69
2022/05/13 07:31:03;;;;;;;9.27;2.60;;;;;;;;;;5057636;28;1027497;-67
2022/05/13 07:33:30;;;;;;;6.30;2.30;;;;;;;;;;5093938;28;20087;-68
2022/05/13 07:35:56;;;;;;;6.65;2.33;;;;;;;;;;5094150;28;20040;-68
2022/05/13 07:38:22;;;;;;;10.82;3.25;;;;;;;;;;5094252;28;20075;-68
2022/05/13 07:43:34;;;;;;;6.10;2.53;;;;;;;;;;5093435;28;20051;-69
2022/05/13 07:46:01;;;;;;;8.80;2.80;;;;;;;;;;5094040;28;20044;-69
2022/05/13 07:48:27;;;;;;;8.88;2.03;;;;;;;;;;5093961;28;20040;-69
2022/05/13 07:50:53;;;;;;;7.05;1.98;;;;;;;;;;5093766;28;20093;-69
2022/05/13 07:53:19;;;;;;;8.05;2.20;;;;;;;;;;5093734;28;20437;-68
2022/05/13 07:55:46;;;;;;;5.40;2.42;;;;;;;;;;5093264;28;20036;-68
2022/05/13 07:58:12;;;;;;;8.05;2.10;;;;;;;;;;5093871;28;20036;-69
2022/05/13 08:00:38;;;;;;;3.80;1.70;;;;;;;;;;5090719;28;20115;-68
2022/05/13 08:03:09;;;;;;;8.95;2.08;;;;;;;;;;5093466;28;20036;-69
2022/05/13 08:05:40;;;;;;;6.53;2.20;;;;;;;;;;5093768;28;20048;-68
2022/05/13 08:08:29;;;;;;;7.43;2.30;;;;;;;;;;5093543;28;20040;-69
2022/05/13 08:10:57;;;;;;;10.25;2.22;;;;;;;;;;5092884;28;20044;-69
2022/05/13 08:13:23;;;;;;;8.07;1.85;;;;;;;;;;5093587;28;20628;-69
2022/05/13 08:15:50;;;;;;;7.35;1.67;;;;;;;;;;5093461;28;20125;-67
2022/05/13 08:18:16;;;;;;;7.82;2.05;;;;;;;;;;5093258;28;20097;-69
2022/05/13 08:20:43;;;;;;;8.48;1.45;;;;;;;;;;5091964;28;20048;-69
2022/05/13 08:23:09;;;;;;;6.20;1.60;;;;;;;;;;5093506;28;20036;-68
2022/05/13 08:25:35;;;;;;;6.15;1.80;;;;;;;;;;5092950;28;20127;-69
2022/05/13 08:28:01;;;;;;;8.88;2.08;;;;;;;;;;5093279;28;20036;-69
2022/05/13 08:30:28;;;;;;;4.70;1.60;;;;;;;;;;5090288;28;20127;-69
2022/05/13 08:32:54;;;;;;;3.85;1.50;;;;;;;;;;5092941;28;20106;-67
2022/05/13 08:35:20;;;;;;;7.30;1.60;;;;;;;;;;5092800;28;20075;-69
2022/05/13 08:37:49;;;;;;;6.03;1.52;;;;;;;;;;5092961;28;20115;-69
2022/05/13 08:40:20;;;;;;;5.15;1.40;;;;;;;;;;5092977;28;20055;-69
2022/05/13 08:42:47;;;;;;;7.45;1.75;;;;;;;;;;5092670;28;20457;-70
2022/05/13 08:45:14;;;;;;;5.90;1.65;;;;;;;;;;5092892;28;20047;-70
2022/05/13 08:47:47;;;;;;;5.30;1.85;;;;;;;;;;5092892;28;20050;-69
2022/05/13 08:50:20;;;;;;;4.75;1.40;;;;;;;;;;5092831;28;20036;-69
2022/05/13 08:55:32;;;;;;;4.75;1.40;;;;;;;;;;5092862;28;20075;-69
2022/05/13 08:58:00;;;;;;;8.43;1.90;;;;;;;;;;5093141;28;20055;-69
2022/05/13 09:00:46;;;;;;;8.13;1.50;;;;;;;;;;5093227;28;20072;-69
2022/05/13 09:03:15;;;;;;;14.23;1.40;;;;;;;;;;5092928;28;20483;-68
2022/05/13 09:05:43;;;;;;;9.75;1.90;;;;;;;;;;5093060;28;20050;-69
2022/05/13 09:08:09;;;;;;;6.78;1.45;;;;;;;;;;5092925;28;20109;-69
2022/05/13 09:10:39;;;;;;;6.13;1.40;;;;;;;;;;5092845;28;20371;-69
2022/05/13 09:13:11;;;;;;;9.13;1.50;;;;;;;;;;5092691;28;20389;-68
2022/05/13 09:15:45;;;;;;;4.30;1.33;;;;;;;;;;5092116;28;20032;-69
2022/05/13 09:18:15;;;;;;;5.25;1.23;;;;;;;;;;5092354;28;20131;-68
2022/05/13 09:20:48;;;;;;;6.18;1.30;;;;;;;;;;5091383;28;20069;-68
2022/05/13 09:23:15;;;;;;;3.25;1.23;;;;;;;;;;5092080;28;20491;-69
2022/05/13 09:25:59;;;;;;;5.88;1.08;;;;;;;;;;5092535;28;20044;-69
2022/05/13 09:28:26;;;;;;;6.28;1.23;;;;;;;;;;5092389;28;20101;-69
2022/05/13 09:30:55;;;;;;;7.70;1.20;;;;;;;;;;5092219;28;20062;-69
2022/05/13 09:33:26;;;;;;;6.68;1.70;;;;;;;;;;5089851;28;20406;-68
2022/05/13 09:35:56;;;;;;;6.93;2.08;;;;;;;;;;5092419;28;20040;-69
2022/05/13 09:38:24;;;;;;;8.27;1.40;;;;;;;;;;5092506;28;20441;-69
2022/05/13 09:40:57;;;;;;;5.87;1.17;;;;;;;;;;5092946;28;20043;-68
2022/05/13 09:43:31;;;;;;;6.28;2.08;;;;;;;;;;5092683;28;20285;-69
2022/05/13 09:46:05;;;;;;;5.80;1.30;;;;;;;;;;5092783;28;20112;-68
2022/05/13 09:48:33;;;;;;;13.35;2.95;;;;;;;;;;5092577;28;20136;-68
2022/05/13 09:51:16;;;;;;;6.90;1.77;;;;;;;;;;5092254;28;20386;-69
2022/05/13 09:53:42;;;;;;;9.23;1.20;;;;;;;;;;5092645;28;20079;-69
2022/05/13 09:56:14;;;;;;;7.75;1.90;;;;;;;;;;5091161;28;20090;-69
2022/05/13 09:58:50;;;;;;;5.07;1.25;;;;;;;;;;5092349;28;20451;-68
2022/05/13 10:01:21;;;;;;;4.85;0.90;;;;;;;;;;5092295;28;20040;-70
2022/05/13 10:04:00;;;;;;;6.13;1.52;;;;;;;;;;5092542;28;20153;-67
2022/05/13 10:06:31;;;;;;;7.68;1.52;;;;;;;;;;5092488;28;20047;-68
2022/05/13 10:14:34;;;;;;;6.43;1.23;;;;;;;;;;5092418;28;20056;-68
2022/05/13 10:17:05;;;;;;;7.03;1.97;;;;;;;;;;5092287;28;20044;-68
2022/05/13 10:19:31;;;;;;;5.80;1.58;;;;;;;;;;5094170;28;20076;-68
2022/05/13 10:22:06;;;;;;;7.07;1.50;;;;;;;;;;5095839;28;20087;-71
2022/05/13 10:24:41;;;;;;;4.90;1.27;;;;;;;;;;5095905;28;20111;-70
2022/05/13 10:27:09;;;;;;;4.80;1.60;;;;;;;;;;5095986;28;20456;-70
2022/05/13 10:29:41;;;;;;;8.98;1.77;;;;;;;;;;5095862;28;20080;-69
2022/05/13 10:32:27;;;;;;;5.38;1.40;;;;;;;;;;5095877;28;20092;-69
2022/05/13 10:34:54;;;;;;;6.75;1.85;;;;;;;;;;5095803;28;20101;-69
2022/05/13 10:37:45;;;;;;;10.02;2.20;;;;;;;;;;5095851;28;20066;-69
2022/05/13 10:40:13;;;;;;;7.78;1.67;;;;;;;;;;5095908;28;20044;-69
2022/05/13 10:42:43;;;;;;;9.30;2.87;;;;;;;;;;5095976;28;20044;-69
2022/05/13 10:45:13;;;;;;;6.93;1.55;;;;;;;;;;5095665;28;20285;-69
2022/05/13 10:47:58;;;;;;;12.23;2.65;;;;;;;;;;5095524;28;20036;-71
2022/05/13 10:50:25;;;;;;;7.43;1.58;;;;;;;;;;5095461;28;20044;-70
2022/05/13 10:52:58;;;;;;;5.18;1.30;;;;;;;;;;5095422;28;20039;-70
2022/05/13 10:55:47;;;;;;;3.95;1.30;;;;;;;;;;5095394;28;20068;-69
2022/05/13 10:58:35;;;;;;;6.10;1.40;;;;;;;;;;5092898;28;20119;-69
2022/05/13 11:01:19;;;;;;;6.60;1.30;;;;;;;;;;5095012;28;20403;-70
2022/05/13 11:04:05;;;;;;;8.60;1.90;;;;;;;;;;5095149;28;20071;-69
2022/05/13 11:06:50;;;;;;;6.05;1.20;;;;;;;;;;5092112;28;20051;-70
2022/05/13 11:09:22;;;;;;;8.10;1.40;;;;;;;;;;5091934;28;20170;-69
2022/05/13 11:11:48;;;;;;;8.40;1.70;;;;;;;;;;5094387;28;20041;-68
2022/05/13 11:14:37;;;;;;;6.28;1.50;;;;;;;;;;5094437;28;20059;-69
2022/05/13 11:17:08;;;;;;;6.60;1.52;;;;;;;;;;5094754;28;20047;-67
2022/05/13 11:19:53;;;;;;;28.10;4.18;;;;;;;;;;5095106;28;20119;-68
2022/05/13 11:22:26;;;;;;;6.15;2.20;;;;;;;;;;5094876;28;20178;-68
2022/05/13 11:27:39;;;;;;;5.93;1.73;;;;;;;;;;5094891;28;20052;-67
2022/05/13 11:30:05;;;;;;;;;;;;;;;;;;5094184;28;20530;-67
2022/05/13 11:32:34;;;;;;;7.22;1.85;;;;;;;;;;5094334;28;19950;-68
2022/05/13 11:35:00;;;;;;;;;;;;;;;;;;5094782;28;20044;-67
2022/05/13 11:37:29;;;;;;;4.50;1.55;;;;;;;;;;5094317;28;20042;-68
2022/05/13 11:39:55;;;;;;;5.45;1.55;;;;;;;;;;5094331;28;20107;-68
2022/05/13 11:42:20;;;;;;;5.32;2.13;;;;;;;;;;5094496;28;20040;-68
2022/05/13 11:45:14;;;;;;;5.28;1.65;;;;;;;;;;5094259;28;20067;-69
2022/05/13 11:47:56;;;;;;;20.15;4.72;;;;;;;;;;5092231;28;20514;-69
2022/05/13 11:50:23;;;;;;;7.70;1.27;;;;;;;;;;5092673;28;20096;-70
2022/05/13 11:52:50;;;;;;;9.90;2.53;;;;;;;;;;5093951;28;20089;-69
2022/05/13 11:55:17;;;;;;;6.00;1.60;;;;;;;;;;5093565;28;20477;-70
2022/05/13 11:57:44;;;;;;;5.03;1.42;;;;;;;;;;5094139;28;20491;-69
2022/05/13 12:00:19;;;;;;;7.03;1.40;;;;;;;;;;5093584;28;20066;-68
2022/05/13 12:02:45;;;;;;;3.20;1.35;;;;;;;;;;5092534;28;20155;-68
2022/05/13 12:05:25;;;;;;;7.45;2.10;;;;;;;;;;5090869;28;20546;-69
2022/05/13 12:08:31;;;;;;;5.78;2.00;;;;;;;;;;5084145;28;20048;-68
2022/05/13 12:11:03;;;;;;;5.97;1.52;;;;;;;;;;5051311;28;20537;-68
2022/05/13 12:13:46;;;;;;;7.53;1.67;;;;;;;;;;5051530;28;20041;-69
2022/05/13 12:16:18;;;;;;;9.18;2.22;;;;;;;;;;5034670;28;20171;-69
2022/05/13 12:18:46;;;;;;;9.82;2.25;;;;;;;;;;5051283;28;20107;-69
2022/05/13 12:21:12;;;;;;;;;;;;;;;;;;5051678;28;20048;-68
2022/05/13 12:23:38;;;;;;;17.08;3.38;;;;;;;;;;5051090;28;20418;-69
2022/05/13 12:26:06;;;;;;;7.30;1.98;;;;;;;;;;5051089;28;20045;-67
2022/05/13 12:28:38;;;;;;;7.28;2.10;;;;;;;;;;5051216;28;20052;-70
2022/05/13 12:31:17;;;;;;;12.88;3.05;;;;;;;;;;5050969;28;20053;-67
2022/05/13 12:33:49;;;;;;;6.25;1.88;;;;;;;;;;5051031;28;20080;-67
2022/05/13 12:39:22;;;;;;;8.20;1.88;;;;;;;;;;5051171;28;20053;-68
2022/05/13 12:41:48;;;;;;;;;;;;;;;;;;5074181;28;20087;-68
2022/05/13 12:44:14;;;;;;;8.43;1.88;;;;;;;;;;5093441;28;19920;-67
2022/05/13 12:46:47;;;;;;;7.85;1.50;;;;;;;;;;5093414;28;20054;-68
2022/05/13 12:49:21;;;;;;;10.13;1.92;;;;;;;;;;5093328;28;20048;-68
2022/05/13 12:51:52;;;;;;;13.02;2.42;;;;;;;;;;5093046;28;20047;-68
2022/05/13 12:54:21;;;;;;;11.93;1.30;;;;;;;;;;5093192;28;20050;-68
2022/05/13 12:56:51;;;;;;;13.27;1.88;;;;;;;;;;5093276;28;20098;-68
2022/05/13 12:59:19;;;;;;;8.27;1.38;;;;;;;;;;5093155;28;20039;-68
2022/05/13 13:01:45;;;;;;;;;;;;;;;;;;5093506;28;20051;-68
2022/05/13 13:04:13;;;;;;;8.15;2.00;;;;;;;;;;5093092;28;20006;-67
2022/05/13 13:06:42;;;;;;;7.43;1.20;;;;;;;;;;5091847;28;20040;-67
2022/05/13 13:09:15;;;;;;;6.65;1.88;;;;;;;;;;5093170;28;20044;-68
2022/05/13 13:11:59;;;;;;;6.50;1.60;;;;;;;;;;5091345;28;20086;-69
2022/05/13 13:14:44;;;;;;;6.15;1.40;;;;;;;;;;5091785;28;20047;-67
2022/05/13 13:17:19;;;;;;;5.68;1.20;;;;;;;;;;5091988;28;20043;-67
2022/05/13 13:19:46;;;;;;;7.80;1.67;;;;;;;;;;5092352;28;20079;-69
2022/05/13 13:22:13;;;;;;;9.00;1.17;;;;;;;;;;5092343;28;20032;-68
2022/05/13 13:24:40;;;;;;;10.90;1.60;;;;;;;;;;5092233;28;20043;-69
2022/05/13 13:27:08;;;;;;;10.27;1.45;;;;;;;;;;5092265;28;20110;-69
2022/05/13 13:29:38;;;;;;;8.77;1.20;;;;;;;;;;5092054;28;20042;-68
2022/05/13 13:32:07;;;;;;;21.25;5.68;;;;;;;;;;5092561;28;20039;-68
2022/05/13 13:34:33;;;;;;;16.15;2.50;;;;;;;;;;5092701;28;20044;-67
2022/05/13 13:37:00;;;;;;;8.60;2.55;;;;;;;;;;5092615;28;20554;-67
2022/05/13 13:39:30;;;;;;;5.35;1.23;;;;;;;;;;5108865;28;20087;-68
2022/05/13 13:42:03;;;;;;;9.35;1.48;;;;;;;;;;5093034;28;20062;-68
2022/05/13 13:44:29;;;;;;;4.38;1.65;;;;;;;;;;5093196;28;20498;-67
2022/05/13 13:46:55;;;;;;;11.88;1.55;;;;;;;;;;5093323;28;20082;-69
2022/05/13 13:49:32;;;;;;;6.60;1.83;;;;;;;;;;5093062;28;20100;-69
2022/05/13 13:52:01;;;;;;;6.67;1.50;;;;;;;;;;5092964;28;20040;-68
2022/05/13 13:54:38;;;;;;;4.03;1.35;;;;;;;;;;5094350;28;20277;-68
2022/05/13 13:57:24;;;;;;;6.60;1.40;;;;;;;;;;5096613;28;20143;-68
2022/05/13 13:59:50;;;;;;;6.70;1.52;;;;;;;;;;5096407;28;20036;-68
2022/05/13 14:02:32;;;;;;;5.90;1.42;;;;;;;;;;5096455;28;20177;-69
2022/05/13 14:04:58;;;;;;;4.15;1.40;;;;;;;;;;5096515;28;20123;-68
2022/05/13 14:07:25;;;;;;;6.13;1.15;;;;;;;;;;5096384;28;20459;-67
2022/05/13 14:09:51;;;;;;;4.72;1.33;;;;;;;;;;5096461;28;20078;-67
2022/05/13 14:12:20;;;;;;;5.45;1.30;;;;;;;;;;5096603;28;20055;-68
2022/05/13 14:14:46;;;;;;;;;;;;;;;;;;5095467;28;20175;-69
2022/05/13 14:17:12;;;;;;;10.50;1.85;;;;;;;;;;5096134;28;19920;-68
2022/05/13 14:19:46;;;;;;;5.22;1.40;;;;;;;;;;5095924;28;20063;-68
2022/05/13 14:22:12;;;;;;;8.35;1.60;;;;;;;;;;5096060;28;20131;-68
2022/05/13 14:24:39;;;;;;;11.35;2.65;;;;;;;;;;5096023;28;20063;-68
2022/05/13 14:27:10;;;;;;;4.43;1.48;;;;;;;;;;5095938;28;20044;-68
2022/05/13 14:29:37;;;;;;;5.65;1.75;;;;;;;;;;5111842;28;20056;-68
2022/05/13 14:32:05;;;;;;;5.53;1.70;;;;;;;;;;5096611;28;20137;-69
2022/05/13 14:34:31;;;;;;;5.90;1.58;;;;;;;;;;5096592;28;20051;-68
2022/05/13 14:36:58;;;;;;;5.57;1.60;;;;;;;;;;5111993;28;20050;-68
2022/05/13 14:42:15;;;;;;;8.32;1.50;;;;;;;;;;5094710;28;20052;-68
2022/05/13 14:44:42;;;;;;;6.13;1.48;;;;;;;;;;5096358;28;20044;-69
2022/05/13 14:47:15;;;;;;;5.75;1.55;;;;;;;;;;5096138;28;20043;-70
2022/05/13 14:49:44;;;;;;;6.30;1.75;;;;;;;;;;5096266;28;20048;-69
2022/05/13 14:52:20;;;;;;;9.88;1.88;;;;;;;;;;5095936;28;20434;-69
2022/05/13 14:54:46;;;;;;;11.30;1.80;;;;;;;;;;5095739;28;20560;-68
2022/05/13 14:57:12;;;;;;;5.03;1.52;;;;;;;;;;5095770;28;20048;-70
2022/05/13 14:59:42;;;;;;;10.65;1.77;;;;;;;;;;5095723;28;20040;-69
2022/05/13 15:02:11;;;;;;;7.13;1.83;;;;;;;;;;5095797;28;20048;-70
2022/05/13 15:04:38;;;;;;;;;;;;;;;;;;5095917;28;20040;-69
2022/05/13 15:07:15;;;;;;;7.72;1.90;;;;;;;;;;5095734;28;19920;-70
2022/05/13 15:09:41;;;;;;;9.30;2.03;;;;;;;;;;5095751;28;20040;-69
2022/05/13 15:12:08;;;;;;;4.38;1.60;;;;;;;;;;5094454;28;20044;-68
2022/05/13 15:14:34;;;;;;;5.22;1.40;;;;;;;;;;5095503;28;20044;-69
2022/05/13 15:17:02;;;;;;;7.20;1.40;;;;;;;;;;5095482;28;20598;-68
2022/05/13 15:19:29;;;;;;;3.85;1.40;;;;;;;;;;5095502;28;20407;-69
2022/05/13 15:22:15;;;;;;;4.82;1.52;;;;;;;;;;5095328;28;20460;-68
2022/05/13 15:24:42;;;;;;;5.60;1.60;;;;;;;;;;5110721;28;20044;-68
2022/05/13 15:27:10;;;;;;;4.45;1.70;;;;;;;;;;5095234;28;20043;-68